createdAt,value
2022-10-04T00:00:11.019Z,14.40
2022-10-04T00:02:41.300Z,14.40
2022-10-04T00:05:14.038Z,14.40
2022-10-04T00:07:47.593Z,14.40
2022-10-04T00:10:22.062Z,14.40
2022-10-04T00:12:58.695Z,14.40
2022-10-04T00:15:31.981Z,14.40
2022-10-04T00:18:19.511Z,14.30
2022-10-04T00:21:05.577Z,14.30
2022-10-04T00:23:45.754Z,14.30
2022-10-04T00:27:10.909Z,14.40
2022-10-04T00:29:42.103Z,14.30
2022-10-04T00:32:28.001Z,14.20
2022-10-04T00:34:56.963Z,14.20
2022-10-04T00:37:26.116Z,14.20
2022-10-04T00:40:05.761Z,14.20
2022-10-04T00:42:49.420Z,14.20
2022-10-04T00:45:33.739Z,14.20
2022-10-04T00:48:30.342Z,14.10
2022-10-04T00:51:04.806Z,14.20
2022-10-04T00:53:57.808Z,14.10
2022-10-04T00:56:32.580Z,14.10
2022-10-04T00:59:21.009Z,14.10
2022-10-04T01:01:53.938Z,14.10
2022-10-04T01:04:40.760Z,14.10
2022-10-04T01:07:10.914Z,14.00
2022-10-04T01:09:47.233Z,14.00
2022-10-04T01:12:23.336Z,14.00
2022-10-04T01:15:01.027Z,14.00
2022-10-04T01:17:28.950Z,14.10
2022-10-04T01:19:58.672Z,13.80
2022-10-04T01:22:51.398Z,13.70
2022-10-04T01:25:45.015Z,13.80
2022-10-04T01:28:14.716Z,13.80
2022-10-04T01:30:43.745Z,13.60
2022-10-04T01:33:13.690Z,13.80
2022-10-04T01:35:42.130Z,13.70
2022-10-04T01:38:12.944Z,13.70
2022-10-04T01:40:47.256Z,13.60
2022-10-04T01:43:19.639Z,13.60
2022-10-04T01:45:55.937Z,13.60
2022-10-04T01:48:28.347Z,13.60
2022-10-04T01:51:01.180Z,13.60
2022-10-04T01:53:32.280Z,13.60
2022-10-04T01:56:09.008Z,13.50
2022-10-04T01:58:43.316Z,13.60
2022-10-04T02:01:15.018Z,13.60
2022-10-04T02:03:46.577Z,13.60
2022-10-04T02:06:15.998Z,13.50
2022-10-04T02:08:50.437Z,13.60
2022-10-04T02:11:20.375Z,13.50
2022-10-04T02:13:52.463Z,13.50
2022-10-04T02:16:22.687Z,13.50
2022-10-04T02:18:52.715Z,13.50
2022-10-04T02:21:21.544Z,13.50
2022-10-04T02:23:53.420Z,13.40
2022-10-04T02:26:21.684Z,13.40
2022-10-04T02:28:50.442Z,13.40
2022-10-04T02:31:40.365Z,13.20
2022-10-04T02:34:09.510Z,13.30
2022-10-04T02:36:39.514Z,13.40
2022-10-04T02:39:15.431Z,13.30
2022-10-04T02:41:48.666Z,13.30
2022-10-04T02:44:21.096Z,13.50
2022-10-04T02:46:54.908Z,13.20
2022-10-04T02:49:31.997Z,13.30
2022-10-04T02:52:06.173Z,13.30
2022-10-04T02:54:41.062Z,13.20
2022-10-04T02:57:15.808Z,13.20
2022-10-04T02:59:43.675Z,13.20
2022-10-04T03:02:29.701Z,13.30
2022-10-04T03:05:02.371Z,13.20
2022-10-04T03:07:33.637Z,13.20
2022-10-04T03:10:04.320Z,13.20
2022-10-04T03:12:32.323Z,13.20
2022-10-04T03:15:00.641Z,13.20
2022-10-04T03:17:29.736Z,13.10
2022-10-04T03:19:58.421Z,13.10
2022-10-04T03:22:26.404Z,13.10
2022-10-04T03:24:58.401Z,13.00
2022-10-04T03:27:32.443Z,13.10
2022-10-04T03:30:01.964Z,13.00
2022-10-04T03:32:32.278Z,13.00
2022-10-04T03:35:03.775Z,13.00
2022-10-04T03:37:36.130Z,13.10
2022-10-04T03:40:05.806Z,13.00
2022-10-04T03:42:37.417Z,13.00
2022-10-04T03:45:12.347Z,13.00
2022-10-04T03:47:45.188Z,13.00
2022-10-04T03:50:17.797Z,13.00
2022-10-04T03:52:51.219Z,13.00
2022-10-04T03:55:20.349Z,13.00
2022-10-04T03:57:49.823Z,13.00
2022-10-04T04:00:19.217Z,13.00
2022-10-04T04:02:51.579Z,13.00
2022-10-04T04:05:24.670Z,13.00
2022-10-04T04:08:01.957Z,12.90
2022-10-04T04:10:32.732Z,12.90
2022-10-04T04:13:07.968Z,13.00
2022-10-04T04:15:36.218Z,12.90
2022-10-04T04:18:06.334Z,12.90
2022-10-04T04:20:36.869Z,12.90
2022-10-04T04:23:13.789Z,12.90
2022-10-04T04:25:44.370Z,12.90
2022-10-04T04:28:26.063Z,12.80
2022-10-04T04:31:00.124Z,12.80
2022-10-04T04:33:34.337Z,12.80
2022-10-04T04:36:07.774Z,12.80
2022-10-04T04:38:56.379Z,12.80
2022-10-04T04:41:25.160Z,12.90
2022-10-04T04:43:54.566Z,12.80
2022-10-04T04:46:27.721Z,12.80
2022-10-04T04:49:02.926Z,12.80
2022-10-04T04:51:33.248Z,12.80
2022-10-04T04:54:07.274Z,12.80
2022-10-04T04:56:36.076Z,12.80
2022-10-04T04:59:09.128Z,12.80
2022-10-04T05:01:43.093Z,12.80
2022-10-04T05:04:19.815Z,12.80
2022-10-04T05:06:50.041Z,12.80
2022-10-04T05:09:25.238Z,12.80
2022-10-04T05:11:58.830Z,12.90
2022-10-04T05:14:31.721Z,12.80
2022-10-04T05:17:00.049Z,12.90
2022-10-04T05:19:31.201Z,12.80
2022-10-04T05:22:02.185Z,12.80
2022-10-04T05:24:32.905Z,12.70
2022-10-04T05:27:03.812Z,12.70
2022-10-04T05:29:36.358Z,12.70
2022-10-04T05:32:13.763Z,12.70
2022-10-04T05:34:45.376Z,12.70
2022-10-04T05:37:27.921Z,12.60
2022-10-04T05:40:06.551Z,12.70
2022-10-04T05:42:41.458Z,12.60
2022-10-04T05:45:20.188Z,12.60
2022-10-04T05:47:50.772Z,12.70
2022-10-04T05:50:21.134Z,12.70
2022-10-04T05:52:52.368Z,12.60
2022-10-04T05:55:28.915Z,12.60
2022-10-04T05:58:32.846Z,12.50
2022-10-04T06:01:16.374Z,12.50
2022-10-04T06:03:58.517Z,12.50
2022-10-04T06:06:34.640Z,12.40
2022-10-04T06:09:12.594Z,12.40
2022-10-04T06:11:52.581Z,12.40
2022-10-04T06:14:39.432Z,12.40
2022-10-04T06:17:25.956Z,12.40
2022-10-04T06:20:40.412Z,12.30
2022-10-04T06:23:14.633Z,12.40
2022-10-04T06:25:48.901Z,12.40
2022-10-04T06:28:21.547Z,12.40
2022-10-04T06:31:18.533Z,12.40
2022-10-04T06:34:05.471Z,12.40
2022-10-04T06:36:47.382Z,12.40
2022-10-04T06:39:43.899Z,12.30
2022-10-04T06:42:40.213Z,12.30
2022-10-04T06:45:23.108Z,12.40
2022-10-04T06:48:09.321Z,12.40
2022-10-04T06:50:46.292Z,12.40
2022-10-04T06:53:28.750Z,12.40
2022-10-04T06:56:14.203Z,12.50
2022-10-04T06:59:00.155Z,12.40
2022-10-04T07:01:31.131Z,12.40
2022-10-04T07:04:07.349Z,12.50
2022-10-04T07:06:43.593Z,12.60
2022-10-04T07:09:21.448Z,12.60
2022-10-04T07:11:56.854Z,12.70
2022-10-04T07:14:30.989Z,12.70
2022-10-04T07:17:03.238Z,12.70
2022-10-04T07:19:37.201Z,12.80
2022-10-04T07:22:15.895Z,12.90
2022-10-04T07:24:53.770Z,12.90
2022-10-04T07:27:26.726Z,12.90
2022-10-04T07:29:57.470Z,13.00
2022-10-04T07:32:29.392Z,13.00
2022-10-04T07:35:03.272Z,13.10
2022-10-04T07:37:37.840Z,13.10
2022-10-04T07:40:11.181Z,13.20
2022-10-04T07:42:47.892Z,13.30
2022-10-04T07:45:24.921Z,13.20
2022-10-04T07:48:05.342Z,13.30
2022-10-04T07:50:43.103Z,13.40
2022-10-04T07:53:17.690Z,13.40
2022-10-04T07:55:56.373Z,13.30
2022-10-04T07:58:46.134Z,13.30
2022-10-04T08:01:24.926Z,13.40
2022-10-04T08:04:04.137Z,13.50
2022-10-04T08:06:37.184Z,13.40
2022-10-04T08:09:37.950Z,13.40
2022-10-04T08:12:13.744Z,13.40
2022-10-04T08:14:54.932Z,13.60
2022-10-04T08:17:43.021Z,13.60
2022-10-04T08:20:27.942Z,13.80
2022-10-04T08:23:08.775Z,13.80
2022-10-04T08:25:47.118Z,13.70
2022-10-04T08:28:44.011Z,14.00
2022-10-04T08:31:27.471Z,13.90
2022-10-04T08:34:08.923Z,14.00
2022-10-04T08:36:49.404Z,14.10
2022-10-04T08:39:40.342Z,14.10
2022-10-04T08:42:41.878Z,14.10
2022-10-04T08:45:54.140Z,14.10
2022-10-04T08:48:47.789Z,14.20
2022-10-04T08:51:43.349Z,14.30
2022-10-04T08:54:44.105Z,14.30
2022-10-04T08:57:43.372Z,14.30
2022-10-04T09:00:17.825Z,14.40
2022-10-04T09:03:31.695Z,14.50
2022-10-04T09:06:08.940Z,14.50
2022-10-04T09:09:26.371Z,14.60
2022-10-04T09:12:20.224Z,14.60
2022-10-04T09:15:21.500Z,14.70
2022-10-04T09:17:55.986Z,14.70
2022-10-04T09:20:38.806Z,14.90
2022-10-04T09:23:23.562Z,14.80
2022-10-04T09:26:06.495Z,14.90
2022-10-04T09:29:22.470Z,14.90
2022-10-04T09:32:12.081Z,15.10
2022-10-04T09:34:58.865Z,15.20
2022-10-04T09:37:39.636Z,15.30
2022-10-04T09:40:47.194Z,15.40
2022-10-04T09:43:50.846Z,15.50
2022-10-04T09:46:32.841Z,15.50
2022-10-04T09:49:13.588Z,15.60
2022-10-04T09:52:15.505Z,15.60
2022-10-04T09:54:56.827Z,15.70
2022-10-04T09:57:39.186Z,15.70
2022-10-04T10:00:22.187Z,15.80
2022-10-04T10:03:31.111Z,15.90
2022-10-04T10:06:28.124Z,16.00
2022-10-04T10:09:13.989Z,16.10
2022-10-04T10:12:11.471Z,16.20
2022-10-04T10:15:08.870Z,16.30
2022-10-04T10:17:44.748Z,16.40
2022-10-04T10:20:32.952Z,16.50
2022-10-04T10:23:26.600Z,16.70
2022-10-04T10:26:24.103Z,16.70
2022-10-04T10:29:33.291Z,16.70
2022-10-04T10:32:16.247Z,16.90
2022-10-04T10:35:14.447Z,17.00
2022-10-04T10:37:55.726Z,16.90
2022-10-04T10:40:48.447Z,17.00
2022-10-04T10:43:41.647Z,17.00
2022-10-04T10:46:23.567Z,17.10
2022-10-04T10:49:11.730Z,17.10
2022-10-04T10:52:06.054Z,17.30
2022-10-04T10:54:56.485Z,17.40
2022-10-04T10:57:44.460Z,17.50
2022-10-04T11:00:21.192Z,17.60
2022-10-04T11:03:23.953Z,17.70
2022-10-04T11:06:16.760Z,17.90
2022-10-04T11:09:17.378Z,18.10
2022-10-04T11:12:05.645Z,18.20
2022-10-04T11:15:06.138Z,18.20
2022-10-04T11:18:17.002Z,18.30
2022-10-04T11:21:18.477Z,18.30
2022-10-04T11:24:21.941Z,18.40
2022-10-04T11:27:10.893Z,18.50
2022-10-04T11:30:03.881Z,18.60
2022-10-04T11:33:23.023Z,18.50
2022-10-04T11:36:32.602Z,18.50
2022-10-04T11:39:31.056Z,18.40
2022-10-04T11:42:12.175Z,18.40
2022-10-04T11:45:19.429Z,18.30
2022-10-04T11:48:01.361Z,18.30
2022-10-04T11:50:43.456Z,18.30
2022-10-04T11:54:03.538Z,18.30
2022-10-04T11:56:48.378Z,18.40
2022-10-04T11:59:39.660Z,18.50
2022-10-04T12:02:50.272Z,18.60
2022-10-04T12:05:51.125Z,18.70
2022-10-04T12:08:32.704Z,18.70
2022-10-04T12:12:09.693Z,18.70
2022-10-04T12:15:13.824Z,18.80
2022-10-04T12:18:21.604Z,18.80
2022-10-04T12:21:31.672Z,18.80
2022-10-04T12:24:09.697Z,18.90
2022-10-04T12:27:00.193Z,18.90
2022-10-04T12:29:58.584Z,19.00
2022-10-04T12:32:33.608Z,19.20
2022-10-04T12:35:16.962Z,19.10
2022-10-04T12:38:08.451Z,19.10
2022-10-04T12:40:42.959Z,19.20
2022-10-04T12:43:17.673Z,19.20
2022-10-04T12:45:56.972Z,19.20
2022-10-04T12:48:37.737Z,19.30
2022-10-04T12:51:21.138Z,19.40
2022-10-04T12:53:57.952Z,19.30
2022-10-04T12:56:45.861Z,19.50
2022-10-04T12:59:35.627Z,19.50
2022-10-04T13:02:21.669Z,19.60
2022-10-04T13:04:53.787Z,19.60
2022-10-04T13:07:51.847Z,19.60
2022-10-04T13:10:40.065Z,19.60
2022-10-04T13:13:41.083Z,19.70
2022-10-04T13:19:20.255Z,19.70
2022-10-04T13:22:11.510Z,19.80
2022-10-04T13:24:56.932Z,19.90
2022-10-04T13:27:32.540Z,20.00
2022-10-04T13:30:05.634Z,20.10
2022-10-04T13:32:43.755Z,20.20
2022-10-04T13:35:21.332Z,20.20
2022-10-04T13:38:04.772Z,20.30
2022-10-04T13:40:59.153Z,20.30
2022-10-04T13:43:45.120Z,20.40
2022-10-04T13:46:25.037Z,20.40
2022-10-04T13:49:04.375Z,20.40
2022-10-04T13:51:49.391Z,20.40
2022-10-04T13:54:46.469Z,20.50
2022-10-04T13:57:23.348Z,20.40
2022-10-04T13:59:56.710Z,20.40
2022-10-04T14:03:05.819Z,20.40
2022-10-04T14:06:04.567Z,20.40
2022-10-04T14:08:52.436Z,20.30
2022-10-04T14:11:43.727Z,20.30
2022-10-04T14:14:42.989Z,20.40
2022-10-04T14:17:43.028Z,20.40
2022-10-04T14:20:47.238Z,20.40
2022-10-04T14:23:48.331Z,20.40
2022-10-04T14:26:44.114Z,20.40
2022-10-04T14:29:38.057Z,20.30
2022-10-04T14:33:00.054Z,20.30
2022-10-04T14:35:31.370Z,20.30
2022-10-04T14:38:43.164Z,20.20
2022-10-04T14:41:52.888Z,20.10
2022-10-04T14:44:51.028Z,20.20
2022-10-04T14:47:47.812Z,20.00
2022-10-04T14:50:30.920Z,20.10
2022-10-04T14:53:16.100Z,20.00
2022-10-04T14:56:14.838Z,20.00
2022-10-04T14:58:57.804Z,20.00
2022-10-04T15:01:29.322Z,20.00
2022-10-04T15:04:11.741Z,20.10
2022-10-04T15:06:48.585Z,20.00
2022-10-04T15:09:42.580Z,20.00
2022-10-04T15:13:12.099Z,20.00
2022-10-04T15:15:54.316Z,20.00
2022-10-04T15:18:45.776Z,20.00
2022-10-04T15:21:33.792Z,19.90
2022-10-04T15:24:25.589Z,19.90
2022-10-04T15:27:14.753Z,19.90
2022-10-04T15:29:52.661Z,19.80
2022-10-04T15:32:35.414Z,19.80
2022-10-04T15:35:21.819Z,19.70
2022-10-04T15:37:57.932Z,19.70
2022-10-04T15:40:40.866Z,19.70
2022-10-04T15:43:24.161Z,19.70
2022-10-04T15:46:28.717Z,19.60
2022-10-04T15:49:14.096Z,19.60
2022-10-04T15:52:03.623Z,19.50
2022-10-04T15:55:02.070Z,19.50
2022-10-04T15:57:40.489Z,19.30
2022-10-04T16:00:15.650Z,19.30
2022-10-04T16:03:11.025Z,19.30
2022-10-04T16:05:43.485Z,19.30
2022-10-04T16:08:35.963Z,19.30
2022-10-04T16:11:27.038Z,19.20
2022-10-04T16:14:20.093Z,19.20
2022-10-04T16:17:25.204Z,19.20
2022-10-04T16:20:13.753Z,19.20
2022-10-04T16:22:42.279Z,19.10
2022-10-04T16:25:38.866Z,19.10
2022-10-04T16:28:13.921Z,19.10
2022-10-04T16:30:49.354Z,19.10
2022-10-04T16:33:37.438Z,19.00
2022-10-04T16:36:11.918Z,19.10
2022-10-04T16:39:05.013Z,19.10
2022-10-04T16:41:41.027Z,19.00
2022-10-04T16:44:28.792Z,19.00
2022-10-04T16:47:02.427Z,19.00
2022-10-04T16:49:38.836Z,19.00
2022-10-04T16:52:32.574Z,19.00
2022-10-04T16:55:28.499Z,19.00
2022-10-04T16:58:37.575Z,19.00
2022-10-04T17:01:43.261Z,19.00
2022-10-04T17:04:27.646Z,18.90
2022-10-04T17:07:00.921Z,18.90
2022-10-04T17:09:32.035Z,18.90
2022-10-04T17:12:19.148Z,18.90
2022-10-04T17:15:21.048Z,19.00
2022-10-04T17:17:58.462Z,18.90
2022-10-04T17:20:45.717Z,18.80
2022-10-04T17:23:31.926Z,18.80
2022-10-04T17:26:10.242Z,18.80
2022-10-04T17:28:52.351Z,18.80
2022-10-04T17:31:28.003Z,18.90
2022-10-04T17:34:06.976Z,18.80
2022-10-04T17:36:39.682Z,18.80
2022-10-04T17:39:32.413Z,18.80
2022-10-04T17:42:16.502Z,18.80
2022-10-04T17:45:12.202Z,18.80
2022-10-04T17:48:02.898Z,18.70
2022-10-04T17:50:57.610Z,18.70
2022-10-04T17:53:53.492Z,18.70
2022-10-04T17:56:29.729Z,18.80
2022-10-04T17:59:00.043Z,18.80
2022-10-04T18:01:34.028Z,18.70
2022-10-04T18:04:10.060Z,18.70
2022-10-04T18:06:43.790Z,18.80
2022-10-04T18:09:26.220Z,18.70
2022-10-04T18:11:56.997Z,18.70
2022-10-04T18:14:56.785Z,18.70
2022-10-04T18:17:33.045Z,18.70
2022-10-04T18:20:27.156Z,18.70
2022-10-04T18:23:01.365Z,18.70
2022-10-04T18:25:33.772Z,18.70
2022-10-04T18:28:06.657Z,18.70
2022-10-04T18:30:35.762Z,18.70
2022-10-04T18:33:14.511Z,18.70
2022-10-04T18:35:52.643Z,18.70
2022-10-04T18:38:25.692Z,18.60
2022-10-04T18:41:01.532Z,18.60
2022-10-04T18:43:32.357Z,18.40
2022-10-04T18:46:07.017Z,18.60
2022-10-04T18:48:41.467Z,18.60
2022-10-04T18:51:27.404Z,18.40
2022-10-04T18:54:10.018Z,18.40
2022-10-04T18:56:49.901Z,18.40
2022-10-04T18:59:48.772Z,18.40
2022-10-04T19:02:25.747Z,18.40
2022-10-04T19:05:02.988Z,18.40
2022-10-04T19:07:38.891Z,18.30
2022-10-04T19:10:20.561Z,18.30
2022-10-04T19:13:03.003Z,18.30
2022-10-04T19:15:44.863Z,18.30
2022-10-04T19:18:41.405Z,18.20
2022-10-04T19:21:17.886Z,18.20
2022-10-04T19:24:11.031Z,18.20
2022-10-04T19:26:44.624Z,18.20
2022-10-04T19:29:32.481Z,18.20
2022-10-04T19:32:06.631Z,18.20
2022-10-04T19:34:45.549Z,18.20
2022-10-04T19:37:31.685Z,18.20
2022-10-04T19:40:10.768Z,18.10
2022-10-04T19:42:50.134Z,18.10
2022-10-04T19:45:33.540Z,18.10
2022-10-04T19:48:07.067Z,18.10
2022-10-04T19:50:40.589Z,18.10
2022-10-04T19:53:16.414Z,18.10
2022-10-04T19:55:54.030Z,18.10
2022-10-04T19:58:32.076Z,18.10
2022-10-04T20:01:02.164Z,18.10
2022-10-04T20:03:30.332Z,18.10
2022-10-04T20:05:58.708Z,18.00
2022-10-04T20:08:50.382Z,18.10
2022-10-04T20:11:21.164Z,18.00
2022-10-04T20:14:29.705Z,18.00
2022-10-04T20:17:06.826Z,18.00
2022-10-04T20:19:39.532Z,17.90
2022-10-04T20:22:40.395Z,18.00
2022-10-04T20:25:10.215Z,18.00
2022-10-04T20:28:00.600Z,18.00
2022-10-04T20:30:50.446Z,17.90
2022-10-04T20:33:47.079Z,17.90
2022-10-04T20:36:53.276Z,17.90
2022-10-04T20:40:00.724Z,17.90
2022-10-04T20:42:38.739Z,17.90
2022-10-04T20:45:27.887Z,17.80
2022-10-04T20:47:58.420Z,17.80
2022-10-04T20:50:32.300Z,17.90
2022-10-04T20:53:04.528Z,17.80
2022-10-04T20:55:34.163Z,17.80
2022-10-04T20:58:04.152Z,17.90
2022-10-04T21:00:34.828Z,18.00
2022-10-04T21:03:17.935Z,17.80
2022-10-04T21:05:52.507Z,17.80
2022-10-04T21:08:27.664Z,17.80
2022-10-04T21:11:09.152Z,17.70
2022-10-04T21:13:43.085Z,17.80
2022-10-04T21:16:11.332Z,17.80
2022-10-04T21:18:39.492Z,17.70
2022-10-04T21:21:08.647Z,17.70
2022-10-04T21:23:38.077Z,17.70
2022-10-04T21:26:22.274Z,17.80
2022-10-04T21:28:54.071Z,17.80
2022-10-04T21:31:22.135Z,17.80
2022-10-04T21:33:50.295Z,17.90
2022-10-04T21:36:18.336Z,17.80
2022-10-04T21:38:47.733Z,17.80
2022-10-04T21:41:15.764Z,17.80
2022-10-04T21:43:43.772Z,17.90
2022-10-04T21:46:14.377Z,17.80
2022-10-04T21:48:45.907Z,17.80
2022-10-04T21:51:14.041Z,17.80
2022-10-04T21:53:41.967Z,17.70
2022-10-04T21:56:11.365Z,17.80
2022-10-04T21:58:39.354Z,17.80
2022-10-04T22:01:08.152Z,17.80
2022-10-04T22:03:36.184Z,17.80
2022-10-04T22:06:04.117Z,17.80
2022-10-04T22:08:32.409Z,17.80
2022-10-04T22:11:00.427Z,17.80
2022-10-04T22:13:29.897Z,17.80
2022-10-04T22:15:57.849Z,17.80
2022-10-04T22:18:26.200Z,17.70
2022-10-04T22:20:54.184Z,17.70
2022-10-04T22:23:24.747Z,17.70
2022-10-04T22:25:53.618Z,17.70
2022-10-04T22:28:24.561Z,17.70
2022-10-04T22:30:55.817Z,17.70
2022-10-04T22:33:34.849Z,17.70
2022-10-04T22:36:15.481Z,17.70
2022-10-04T22:38:46.858Z,17.70
2022-10-04T22:41:17.625Z,17.70
2022-10-04T22:43:46.380Z,17.60
2022-10-04T22:46:18.575Z,17.60
2022-10-04T22:48:49.122Z,17.60
2022-10-04T22:51:17.315Z,17.60
2022-10-04T22:53:47.201Z,17.60
2022-10-04T22:56:16.042Z,17.60
2022-10-04T22:58:44.062Z,17.60
2022-10-04T23:01:15.085Z,17.60
2022-10-04T23:03:46.831Z,17.60
2022-10-04T23:06:15.394Z,17.60
2022-10-04T23:08:43.812Z,17.50
2022-10-04T23:11:12.736Z,17.50
2022-10-04T23:13:40.655Z,17.50
2022-10-04T23:16:14.948Z,17.50
2022-10-04T23:18:44.426Z,17.50
2022-10-04T23:21:21.733Z,17.40
2022-10-04T23:23:50.661Z,17.40
2022-10-04T23:26:23.739Z,17.50
2022-10-04T23:28:52.127Z,17.50
2022-10-04T23:31:24.747Z,17.50
2022-10-04T23:33:56.550Z,17.50
2022-10-04T23:36:25.182Z,17.50
2022-10-04T23:38:57.734Z,17.50
2022-10-04T23:41:26.486Z,17.50
2022-10-04T23:43:54.742Z,17.50
2022-10-04T23:46:25.024Z,17.50
2022-10-04T23:48:54.536Z,17.50
2022-10-04T23:51:23.007Z,17.50
2022-10-04T23:53:51.460Z,17.50
2022-10-04T23:56:23.078Z,17.50
2022-10-04T23:58:52.256Z,17.50
